createdAt,value
2023-02-12T00:01:07.683Z,81.71
2023-02-12T00:03:34.180Z,81.49
2023-02-12T00:06:02.266Z,81.27
2023-02-12T00:08:28.747Z,81.46
2023-02-12T00:10:55.259Z,81.56
2023-02-12T00:13:21.730Z,81.70
2023-02-12T00:15:48.286Z,81.57
2023-02-12T00:18:14.727Z,81.56
2023-02-12T00:20:41.217Z,81.50
2023-02-12T00:23:08.074Z,81.73
2023-02-12T00:25:34.896Z,81.63
2023-02-12T00:28:01.419Z,81.54
2023-02-12T00:30:27.913Z,81.99
2023-02-12T00:32:55.147Z,82.01
2023-02-12T00:35:21.615Z,82.79
2023-02-12T00:37:49.916Z,82.47
2023-02-12T00:40:16.511Z,82.89
2023-02-12T00:42:43.033Z,82.58
2023-02-12T00:45:09.772Z,82.79
2023-02-12T00:47:36.213Z,83.04
2023-02-12T00:50:02.695Z,83.38
2023-02-12T00:52:29.152Z,83.18
2023-02-12T00:54:55.577Z,83.41
2023-02-12T00:57:22.061Z,83.15
2023-02-12T00:59:49.407Z,82.79
2023-02-12T01:02:18.113Z,83.19
2023-02-12T01:04:46.704Z,82.78
2023-02-12T01:07:13.262Z,82.80
2023-02-12T01:09:39.724Z,82.98
2023-02-12T01:12:07.139Z,82.66
2023-02-12T01:14:33.690Z,83.00
2023-02-12T01:17:00.186Z,82.74
2023-02-12T01:19:27.799Z,82.55
2023-02-12T01:21:54.257Z,82.79
2023-02-12T01:24:20.723Z,82.48
2023-02-12T01:26:47.191Z,82.52
2023-02-12T01:29:13.667Z,82.85
2023-02-12T01:31:40.606Z,82.81
2023-02-12T01:34:07.732Z,82.33
2023-02-12T01:36:34.649Z,82.67
2023-02-12T01:39:02.967Z,82.90
2023-02-12T01:41:33.391Z,82.75
2023-02-12T01:44:17.518Z,82.69
2023-02-12T01:46:48.250Z,82.34
2023-02-12T01:49:44.016Z,82.81
2023-02-12T01:52:20.697Z,82.88
2023-02-12T01:54:48.491Z,82.89
2023-02-12T01:57:17.406Z,82.65
2023-02-12T01:59:48.424Z,83.21
2023-02-12T02:02:14.882Z,83.07
2023-02-12T02:04:45.826Z,83.01
2023-02-12T02:07:12.653Z,83.46
2023-02-12T02:09:40.278Z,83.40
2023-02-12T02:12:26.294Z,83.62
2023-02-12T02:14:59.930Z,83.40
2023-02-12T02:17:54.295Z,83.88
2023-02-12T02:20:52.585Z,83.66
2023-02-12T02:23:56.060Z,83.99
2023-02-12T02:26:31.588Z,84.20
2023-02-12T02:29:35.922Z,83.81
2023-02-12T02:32:09.206Z,84.06
2023-02-12T02:34:52.366Z,83.97
2023-02-12T02:37:24.526Z,84.55
2023-02-12T02:39:56.174Z,84.39
2023-02-12T02:42:35.821Z,84.79
2023-02-12T02:45:15.428Z,84.32
2023-02-12T02:47:51.368Z,84.51
2023-02-12T02:50:23.008Z,84.73
2023-02-12T02:52:59.444Z,84.80
2023-02-12T02:55:32.430Z,84.95
2023-02-12T02:58:20.665Z,84.63
2023-02-12T03:01:06.034Z,85.63
2023-02-12T03:03:37.813Z,85.24
2023-02-12T03:06:10.669Z,84.78
2023-02-12T03:08:44.747Z,85.11
2023-02-12T03:11:19.248Z,85.50
2023-02-12T03:13:52.489Z,85.43
2023-02-12T03:16:22.642Z,85.74
2023-02-12T03:19:17.001Z,85.93
2023-02-12T03:21:51.821Z,85.29
2023-02-12T03:24:31.681Z,85.19
2023-02-12T03:27:07.003Z,85.49
2023-02-12T03:29:33.519Z,85.26
2023-02-12T03:32:16.931Z,85.86
2023-02-12T03:35:02.679Z,85.79
2023-02-12T03:37:35.566Z,85.93
2023-02-12T03:40:16.022Z,86.09
2023-02-12T03:43:00.381Z,85.91
2023-02-12T03:45:43.851Z,86.10
2023-02-12T03:48:22.896Z,86.08
2023-02-12T03:50:58.647Z,86.03
2023-02-12T03:53:29.598Z,86.14
2023-02-12T03:56:11.762Z,86.25
2023-02-12T03:58:41.183Z,86.71
2023-02-12T04:01:08.569Z,86.46
2023-02-12T04:03:35.366Z,86.09
2023-02-12T04:06:01.823Z,85.83
2023-02-12T04:08:30.952Z,86.41
2023-02-12T04:11:25.352Z,86.41
2023-02-12T04:14:13.123Z,86.43
2023-02-12T04:17:00.110Z,86.93
2023-02-12T04:19:51.774Z,86.75
2023-02-12T04:22:28.001Z,86.73
2023-02-12T04:25:09.837Z,87.22
2023-02-12T04:27:50.689Z,87.03
2023-02-12T04:30:35.102Z,87.38
2023-02-12T04:33:05.141Z,87.24
2023-02-12T04:35:37.099Z,87.52
2023-02-12T04:38:22.917Z,87.74
2023-02-12T04:40:50.427Z,87.27
2023-02-12T04:43:27.064Z,87.57
2023-02-12T04:45:53.834Z,87.92
2023-02-12T04:48:20.481Z,87.62
2023-02-12T04:50:46.899Z,88.19
2023-02-12T04:53:13.755Z,87.97
2023-02-12T04:55:40.248Z,88.37
2023-02-12T04:58:07.049Z,87.94
2023-02-12T05:00:33.647Z,88.32
2023-02-12T05:03:00.110Z,88.42
2023-02-12T05:05:26.616Z,88.52
2023-02-12T05:07:53.142Z,88.53
2023-02-12T05:10:19.781Z,88.66
2023-02-12T05:12:46.302Z,88.52
2023-02-12T05:15:12.754Z,88.75
2023-02-12T05:17:39.353Z,88.53
2023-02-12T05:20:06.510Z,88.99
2023-02-12T05:22:33.029Z,89.00
2023-02-12T05:24:59.463Z,89.01
2023-02-12T05:27:25.955Z,88.95
2023-02-12T05:29:52.410Z,89.32
2023-02-12T05:32:19.001Z,89.99
2023-02-12T05:34:45.488Z,89.73
2023-02-12T05:37:11.930Z,89.68
2023-02-12T05:39:38.573Z,89.60
2023-02-12T05:42:05.037Z,89.20
2023-02-12T05:44:31.548Z,89.89
2023-02-12T05:46:57.981Z,89.80
2023-02-12T05:49:24.406Z,89.68
2023-02-12T05:51:50.914Z,89.95
2023-02-12T05:54:17.451Z,90.16
2023-02-12T05:56:46.609Z,90.46
2023-02-12T05:59:16.597Z,90.25
2023-02-12T06:01:45.472Z,90.30
2023-02-12T06:04:19.639Z,90.04
2023-02-12T06:06:46.463Z,90.16
2023-02-12T06:09:13.784Z,90.41
2023-02-12T06:11:40.817Z,91.24
2023-02-12T06:14:09.335Z,90.77
2023-02-12T06:16:35.991Z,91.40
2023-02-12T06:19:05.719Z,90.92
2023-02-12T06:21:33.437Z,91.54
2023-02-12T06:23:59.975Z,91.23
2023-02-12T06:26:26.499Z,91.36
2023-02-12T06:28:53.219Z,91.19
2023-02-12T06:31:28.756Z,91.82
2023-02-12T06:33:57.828Z,91.72
2023-02-12T06:36:25.436Z,91.49
2023-02-12T06:38:52.705Z,91.51
2023-02-12T06:41:20.095Z,91.32
2023-02-12T06:43:46.620Z,91.04
2023-02-12T06:46:14.565Z,91.97
2023-02-12T06:48:41.147Z,91.64
2023-02-12T06:51:16.812Z,91.88
2023-02-12T06:53:44.539Z,91.88
2023-02-12T06:56:13.440Z,91.84
2023-02-12T06:58:41.168Z,92.06
2023-02-12T07:01:13.836Z,92.49
2023-02-12T07:03:41.587Z,92.62
2023-02-12T07:06:09.212Z,92.77
2023-02-12T07:08:36.141Z,92.72
2023-02-12T07:11:03.535Z,93.09
2023-02-12T07:13:30.190Z,92.49
2023-02-12T07:15:56.995Z,92.48
2023-02-12T07:18:23.719Z,92.67
2023-02-12T07:20:50.137Z,92.97
2023-02-12T07:23:16.585Z,93.23
2023-02-12T07:25:43.014Z,92.95
2023-02-12T07:28:09.477Z,93.21
2023-02-12T07:30:35.986Z,92.37
2023-02-12T07:33:02.484Z,93.04
2023-02-12T07:35:28.959Z,92.60
2023-02-12T07:37:55.393Z,92.63
2023-02-12T07:40:21.833Z,92.78
2023-02-12T07:42:53.561Z,92.89
2023-02-12T07:45:20.040Z,93.03
2023-02-12T07:47:46.479Z,93.29
2023-02-12T07:50:13.019Z,93.41
2023-02-12T07:52:39.477Z,93.15
2023-02-12T07:55:06.368Z,92.56
2023-02-12T07:57:34.832Z,93.48
2023-02-12T08:00:01.328Z,93.08
2023-02-12T08:02:27.867Z,93.68
2023-02-12T08:04:58.156Z,93.41
2023-02-12T08:07:25.068Z,93.71
2023-02-12T08:09:51.709Z,93.43
2023-02-12T08:12:18.926Z,93.22
2023-02-12T08:14:45.448Z,93.84
2023-02-12T08:17:11.951Z,93.13
2023-02-12T08:19:38.386Z,93.68
2023-02-12T08:22:06.463Z,93.23
2023-02-12T08:24:33.120Z,93.67
2023-02-12T08:26:59.597Z,93.44
2023-02-12T08:29:29.431Z,93.50
2023-02-12T08:31:59.085Z,93.90
2023-02-12T08:34:31.645Z,93.39
2023-02-12T08:36:58.915Z,93.82
2023-02-12T08:39:26.883Z,94.14
2023-02-12T08:41:58.518Z,93.54
2023-02-12T08:44:25.912Z,93.33
2023-02-12T08:46:53.195Z,93.56
2023-02-12T08:49:22.691Z,93.09
2023-02-12T08:51:52.428Z,93.84
2023-02-12T08:54:22.321Z,93.61
2023-02-12T08:56:48.788Z,92.86
2023-02-12T08:59:16.639Z,93.92
2023-02-12T09:01:44.023Z,93.61
2023-02-12T09:04:17.841Z,93.99
2023-02-12T09:06:45.545Z,94.17
2023-02-12T09:09:12.009Z,93.80
2023-02-12T09:11:38.577Z,94.29
2023-02-12T09:14:07.707Z,94.04
2023-02-12T09:16:35.968Z,93.71
2023-02-12T09:19:03.393Z,94.45
2023-02-12T09:21:30.107Z,94.21
2023-02-12T09:23:56.851Z,94.09
2023-02-12T09:26:27.888Z,93.69
2023-02-12T09:28:55.444Z,94.07
2023-02-12T09:31:32.510Z,93.98
2023-02-12T09:34:05.142Z,93.62
2023-02-12T09:36:32.872Z,94.19
2023-02-12T09:39:00.442Z,93.97
2023-02-12T09:41:32.669Z,94.26
2023-02-12T09:44:22.998Z,94.38
2023-02-12T09:47:02.746Z,94.13
2023-02-12T09:49:57.004Z,94.62
2023-02-12T09:52:28.182Z,94.00
2023-02-12T09:54:56.030Z,93.76
2023-02-12T09:57:34.568Z,94.03
2023-02-12T10:00:07.790Z,93.56
2023-02-12T10:02:39.508Z,94.13
2023-02-12T10:05:16.031Z,93.76
2023-02-12T10:08:01.281Z,93.42
2023-02-12T10:10:51.666Z,92.59
2023-02-12T10:13:43.588Z,93.05
2023-02-12T10:16:20.013Z,92.87
2023-02-12T10:19:03.905Z,93.42
2023-02-12T10:21:47.819Z,93.36
2023-02-12T10:24:34.366Z,93.37
2023-02-12T10:27:17.124Z,92.89
2023-02-12T10:29:47.311Z,93.66
2023-02-12T10:32:24.632Z,93.14
2023-02-12T10:34:52.619Z,93.55
2023-02-12T10:37:37.150Z,92.79
2023-02-12T10:40:16.569Z,92.73
2023-02-12T10:42:46.727Z,92.80
2023-02-12T10:45:16.107Z,93.33
2023-02-12T10:47:44.280Z,93.39
2023-02-12T10:50:19.653Z,92.54
2023-02-12T10:52:56.095Z,92.21
2023-02-12T10:55:36.939Z,92.47
2023-02-12T10:58:05.036Z,91.91
2023-02-12T11:00:35.094Z,91.98
2023-02-12T11:03:03.471Z,92.17
2023-02-12T11:05:33.344Z,91.94
2023-02-12T11:08:00.371Z,92.52
2023-02-12T11:10:38.807Z,92.58
2023-02-12T11:13:05.512Z,92.13
2023-02-12T11:15:47.892Z,91.98
2023-02-12T11:18:26.648Z,92.21
2023-02-12T11:21:00.029Z,92.52
2023-02-12T11:23:30.027Z,92.59
2023-02-12T11:26:03.721Z,92.40
2023-02-12T11:28:31.930Z,92.48
2023-02-12T11:31:02.008Z,92.18
2023-02-12T11:33:33.320Z,92.05
2023-02-12T11:36:06.698Z,92.29
2023-02-12T11:38:37.556Z,92.50
2023-02-12T11:41:09.166Z,92.05
2023-02-12T11:43:39.495Z,91.48
2023-02-12T11:46:08.586Z,92.60
2023-02-12T11:48:39.039Z,92.24
2023-02-12T11:51:09.144Z,92.72
2023-02-12T11:53:40.572Z,92.77
2023-02-12T11:56:10.191Z,92.78
2023-02-12T11:58:37.652Z,91.97
2023-02-12T12:01:09.921Z,91.94
2023-02-12T12:03:44.236Z,92.14
2023-02-12T12:06:29.647Z,91.66
2023-02-12T12:09:03.500Z,92.11
2023-02-12T12:11:58.046Z,92.37
2023-02-12T12:14:29.514Z,92.00
2023-02-12T12:17:22.677Z,92.36
2023-02-12T12:20:06.720Z,92.70
2023-02-12T12:23:00.733Z,93.00
2023-02-12T12:25:55.961Z,92.15
2023-02-12T12:28:42.163Z,93.49
2023-02-12T12:31:17.119Z,92.27
2023-02-12T12:33:54.961Z,93.44
2023-02-12T12:36:51.738Z,91.84
2023-02-12T12:39:29.061Z,92.31
2023-02-12T12:42:19.810Z,91.83
2023-02-12T12:45:20.781Z,92.48
2023-02-12T12:48:19.265Z,92.33
2023-02-12T12:51:04.511Z,92.97
2023-02-12T12:54:08.515Z,92.50
2023-02-12T12:56:49.287Z,92.97
2023-02-12T12:59:44.075Z,92.12
2023-02-12T13:02:19.257Z,92.66
2023-02-12T13:05:08.818Z,92.20
2023-02-12T13:07:57.627Z,92.37
2023-02-12T13:10:36.570Z,91.70
2023-02-12T13:13:26.316Z,92.31
2023-02-12T13:16:14.064Z,91.54
2023-02-12T13:18:53.302Z,91.68
2023-02-12T13:21:47.198Z,92.07
2023-02-12T13:24:33.870Z,91.97
2023-02-12T13:27:23.261Z,92.08
2023-02-12T13:29:55.025Z,90.98
2023-02-12T13:32:29.055Z,91.61
2023-02-12T13:34:57.499Z,91.29
2023-02-12T13:37:44.778Z,91.23
2023-02-12T13:40:21.055Z,91.08
2023-02-12T13:43:06.097Z,91.98
2023-02-12T13:45:49.270Z,91.62
2023-02-12T13:48:21.113Z,92.10
2023-02-12T13:51:01.515Z,92.15
2023-02-12T13:53:52.077Z,91.61
2023-02-12T13:56:41.086Z,92.01
2023-02-12T13:59:41.090Z,91.01
2023-02-12T14:02:44.379Z,91.42
2023-02-12T14:05:29.909Z,92.09
2023-02-12T14:08:01.889Z,91.99
2023-02-12T14:10:35.796Z,91.76
2023-02-12T14:13:23.132Z,91.36
2023-02-12T14:15:55.471Z,90.83
2023-02-12T14:18:40.368Z,90.67
2023-02-12T14:21:12.725Z,91.41
2023-02-12T14:23:42.171Z,91.04
2023-02-12T14:26:14.425Z,91.56
2023-02-12T14:28:54.965Z,90.82
2023-02-12T14:31:31.445Z,91.17
2023-02-12T14:34:11.227Z,90.94
2023-02-12T14:36:43.943Z,90.39
2023-02-12T14:39:19.366Z,90.60
2023-02-12T14:41:54.956Z,91.49
2023-02-12T14:44:23.016Z,91.02
2023-02-12T14:46:53.847Z,90.36
2023-02-12T14:49:34.428Z,90.64
2023-02-12T14:52:14.705Z,89.39
2023-02-12T14:54:49.326Z,89.98
2023-02-12T14:57:18.540Z,89.34
2023-02-12T14:59:46.146Z,88.06
2023-02-12T15:02:23.126Z,86.82
2023-02-12T15:04:53.082Z,84.96
2023-02-12T15:07:44.439Z,82.73
2023-02-12T15:10:23.120Z,79.27
2023-02-12T15:13:08.591Z,78.49
2023-02-12T15:16:08.438Z,76.97
2023-02-12T15:18:40.780Z,76.58
2023-02-12T15:21:19.894Z,76.63
2023-02-12T15:23:47.666Z,76.20
2023-02-12T15:26:20.707Z,76.62
2023-02-12T15:28:50.232Z,76.06
2023-02-12T15:31:20.102Z,76.61
2023-02-12T15:33:50.648Z,77.58
2023-02-12T15:36:26.190Z,78.55
2023-02-12T15:38:55.937Z,75.04
2023-02-12T15:41:41.993Z,63.75
2023-02-12T15:44:25.997Z,54.58
2023-02-12T15:46:54.396Z,55.23
2023-02-12T15:49:22.357Z,56.68
2023-02-12T15:51:48.863Z,59.18
2023-02-12T15:54:19.639Z,60.16
2023-02-12T15:56:46.255Z,62.52
2023-02-12T15:59:25.193Z,65.51
2023-02-12T16:01:56.005Z,67.97
2023-02-12T16:04:23.265Z,69.99
2023-02-12T16:06:50.459Z,72.34
2023-02-12T16:09:27.462Z,73.94
2023-02-12T16:11:55.942Z,75.56
2023-02-12T16:14:26.546Z,76.77
2023-02-12T16:16:55.639Z,78.63
2023-02-12T16:19:23.299Z,79.95
2023-02-12T16:21:54.803Z,80.85
2023-02-12T16:24:32.276Z,82.14
2023-02-12T16:27:07.131Z,83.83
2023-02-12T16:29:38.076Z,84.73
2023-02-12T16:32:04.767Z,85.58
2023-02-12T16:34:37.320Z,86.44
2023-02-12T16:37:35.502Z,86.71
2023-02-12T16:40:13.589Z,87.86
2023-02-12T16:42:56.623Z,88.03
2023-02-12T16:45:26.506Z,88.67
2023-02-12T16:48:18.096Z,88.73
2023-02-12T16:50:49.486Z,89.47
2023-02-12T16:53:24.105Z,89.76
2023-02-12T16:55:51.108Z,89.73
2023-02-12T16:58:17.585Z,90.72
2023-02-12T17:00:44.265Z,90.73
2023-02-12T17:03:13.967Z,91.38
2023-02-12T17:05:42.675Z,91.37
2023-02-12T17:08:17.452Z,91.35
2023-02-12T17:10:44.757Z,91.81
2023-02-12T17:13:11.568Z,92.48
2023-02-12T17:15:45.071Z,92.75
2023-02-12T17:18:12.324Z,92.96
2023-02-12T17:20:38.859Z,93.07
2023-02-12T17:23:05.910Z,93.25
2023-02-12T17:25:33.915Z,93.25
2023-02-12T17:28:00.468Z,93.73
2023-02-12T17:30:28.894Z,93.93
2023-02-12T17:32:55.533Z,93.79
2023-02-12T17:35:21.957Z,94.38
2023-02-12T17:37:48.436Z,94.34
2023-02-12T17:40:15.154Z,94.42
2023-02-12T17:42:41.731Z,94.51
2023-02-12T17:45:08.623Z,94.76
2023-02-12T17:47:39.746Z,95.37
2023-02-12T17:50:11.576Z,95.10
2023-02-12T17:52:38.609Z,95.45
2023-02-12T17:55:06.271Z,95.38
2023-02-12T17:57:33.029Z,95.31
2023-02-12T17:59:59.677Z,95.38
2023-02-12T18:02:26.178Z,95.43
2023-02-12T18:04:52.640Z,95.95
2023-02-12T18:07:19.108Z,96.11
2023-02-12T18:09:45.572Z,95.70
2023-02-12T18:12:12.078Z,96.09
2023-02-12T18:14:38.800Z,96.33
2023-02-12T18:17:05.301Z,96.33
2023-02-12T18:19:31.771Z,96.80
2023-02-12T18:21:58.347Z,97.04
2023-02-12T18:24:24.814Z,97.33
2023-02-12T18:26:51.704Z,96.72
2023-02-12T18:29:18.207Z,97.42
2023-02-12T18:31:44.831Z,97.21
2023-02-12T18:34:11.359Z,97.42
2023-02-12T18:36:37.833Z,97.15
2023-02-12T18:39:04.447Z,97.40
2023-02-12T18:41:32.340Z,97.30
2023-02-12T18:43:59.419Z,97.44
2023-02-12T18:46:28.798Z,97.77
2023-02-12T18:48:56.311Z,96.89
2023-02-12T18:51:26.620Z,96.92
2023-02-12T18:54:02.461Z,97.14
2023-02-12T18:56:30.815Z,97.47
2023-02-12T18:58:59.106Z,97.06
2023-02-12T19:01:27.140Z,97.40
2023-02-12T19:03:55.712Z,97.66
2023-02-12T19:06:26.189Z,97.18
2023-02-12T19:08:56.841Z,97.51
2023-02-12T19:11:23.578Z,97.27
2023-02-12T19:13:50.075Z,97.69
2023-02-12T19:16:18.454Z,97.46
2023-02-12T19:18:44.913Z,97.38
2023-02-12T19:21:13.311Z,96.59
2023-02-12T19:23:40.438Z,96.84
2023-02-12T19:26:10.350Z,97.22
2023-02-12T19:28:40.534Z,97.06
2023-02-12T19:31:15.643Z,96.91
2023-02-12T19:33:43.509Z,97.19
2023-02-12T19:36:12.027Z,97.12
2023-02-12T19:38:38.725Z,97.01
2023-02-12T19:41:08.211Z,96.83
2023-02-12T19:43:34.771Z,97.00
2023-02-12T19:46:06.474Z,96.99
2023-02-12T19:48:33.300Z,96.97
2023-02-12T19:51:00.132Z,96.39
2023-02-12T19:53:27.218Z,96.70
2023-02-12T19:55:53.841Z,97.00
2023-02-12T19:58:20.902Z,96.87
2023-02-12T20:00:47.630Z,96.92
2023-02-12T20:03:14.109Z,96.66
2023-02-12T20:05:51.953Z,96.66
2023-02-12T20:08:21.238Z,96.73
2023-02-12T20:10:47.666Z,96.91
2023-02-12T20:13:14.104Z,96.62
2023-02-12T20:15:40.570Z,96.14
2023-02-12T20:18:07.724Z,96.73
2023-02-12T20:20:35.170Z,96.36
2023-02-12T20:23:01.819Z,96.52
2023-02-12T20:25:28.564Z,95.88
2023-02-12T20:27:54.991Z,96.18
2023-02-12T20:30:21.795Z,96.04
2023-02-12T20:32:48.274Z,96.01
2023-02-12T20:35:15.626Z,96.06
2023-02-12T20:37:45.448Z,96.01
2023-02-12T20:40:12.297Z,95.98
2023-02-12T20:42:38.749Z,95.79
2023-02-12T20:45:05.883Z,95.98
2023-02-12T20:47:33.994Z,96.28
2023-02-12T20:50:00.486Z,96.42
2023-02-12T20:52:27.193Z,96.76
2023-02-12T20:54:53.707Z,96.33
2023-02-12T20:57:20.152Z,97.03
2023-02-12T20:59:48.920Z,96.91
2023-02-12T21:02:15.892Z,97.02
2023-02-12T21:04:42.400Z,97.00
2023-02-12T21:07:08.826Z,96.85
2023-02-12T21:09:35.264Z,96.75
2023-02-12T21:12:01.692Z,97.08
2023-02-12T21:14:28.162Z,97.52
2023-02-12T21:16:55.808Z,97.16
2023-02-12T21:19:24.514Z,97.41
2023-02-12T21:21:51.343Z,97.38
2023-02-12T21:24:21.876Z,97.69
2023-02-12T21:26:48.814Z,97.92
2023-02-12T21:29:15.309Z,97.63
2023-02-12T21:31:44.698Z,97.97
2023-02-12T21:34:16.825Z,98.06
2023-02-12T21:36:45.430Z,98.25
2023-02-12T21:39:14.997Z,98.65
2023-02-12T21:41:42.797Z,98.62
2023-02-12T21:44:15.645Z,98.77
2023-02-12T21:46:42.818Z,98.99
2023-02-12T21:49:11.696Z,98.90
2023-02-12T21:51:43.848Z,99.15
2023-02-12T21:54:15.341Z,98.95
2023-02-12T21:56:42.944Z,99.14
2023-02-12T21:59:10.124Z,99.22
2023-02-12T22:01:39.552Z,99.48
2023-02-12T22:04:07.154Z,99.64
2023-02-12T22:06:37.840Z,99.48
2023-02-12T22:09:08.692Z,99.98
2023-02-12T22:11:36.568Z,99.83
2023-02-12T22:14:04.391Z,99.89
2023-02-12T22:16:31.430Z,100.00
2023-02-12T22:19:00.204Z,100.00
2023-02-12T22:21:29.143Z,100.00
2023-02-12T22:23:56.437Z,100.00
2023-02-12T22:26:25.218Z,100.00
2023-02-12T22:29:00.990Z,100.00
2023-02-12T22:31:30.813Z,100.00
2023-02-12T22:34:02.031Z,100.00
2023-02-12T22:36:29.522Z,100.00
2023-02-12T22:38:59.629Z,100.00
2023-02-12T22:41:27.192Z,100.00
2023-02-12T22:43:54.001Z,100.00
2023-02-12T22:46:20.446Z,100.00
2023-02-12T22:48:46.915Z,100.00
2023-02-12T22:51:18.608Z,100.00
2023-02-12T22:53:45.414Z,100.00
2023-02-12T22:56:14.958Z,100.00
2023-02-12T22:58:41.804Z,100.00
2023-02-12T23:01:11.345Z,100.00
2023-02-12T23:03:37.934Z,100.00
2023-02-12T23:06:07.313Z,100.00
2023-02-12T23:08:34.927Z,100.00
2023-02-12T23:11:01.759Z,100.00
2023-02-12T23:13:30.343Z,100.00
2023-02-12T23:15:57.844Z,100.00
2023-02-12T23:18:25.746Z,100.00
2023-02-12T23:20:53.242Z,100.00
2023-02-12T23:23:21.205Z,100.00
2023-02-12T23:25:48.118Z,100.00
2023-02-12T23:28:15.604Z,100.00
2023-02-12T23:30:42.215Z,100.00
2023-02-12T23:33:09.072Z,100.00
2023-02-12T23:35:35.500Z,100.00
2023-02-12T23:38:01.983Z,100.00
2023-02-12T23:40:28.375Z,100.00
2023-02-12T23:42:54.744Z,100.00
2023-02-12T23:45:21.131Z,100.00
2023-02-12T23:47:47.526Z,100.00
2023-02-12T23:50:14.008Z,100.00
2023-02-12T23:52:40.457Z,100.00
2023-02-12T23:55:07.483Z,100.00
2023-02-12T23:57:34.007Z,100.00
